Time;durP1;ratioP1;P1;durP2;ratioP2;P2;SDS_P1;SDS_P2;PMS_P1;PMS_P2;Temp;Humidity;BMP_temperature;BMP_pressure;BME280_temperature;BME280_humidity;BME280_pressure;Samples;Min_cycle;Max_cycle;Signal;HPM_P1;HPM_P2
2023/08/10 00:01:46;;;;;;;3.40;2.70;;;16.20;99.90;;;;;;5018302;28;20488;-74
2023/08/10 00:04:13;;;;;;;4.40;2.47;;;16.20;99.90;;;;;;5028512;28;20471;-74
2023/08/10 00:06:40;;;;;;;6.43;2.30;;;16.10;99.90;;;;;;5028549;28;20484;-74
2023/08/10 00:09:08;;;;;;;6.07;2.60;;;16.00;99.90;;;;;;5019858;28;20577;-74
2023/08/10 00:11:35;;;;;;;4.10;3.20;;;15.90;99.90;;;;;;5024424;28;20829;-74
2023/08/10 00:14:04;;;;;;;3.07;2.67;;;15.80;99.90;;;;;;5022448;28;20478;-74
2023/08/10 00:16:31;;;;;;;6.80;2.70;;;15.80;99.90;;;;;;5022521;28;20468;-74
2023/08/10 00:18:57;;;;;;;9.47;2.87;;;15.80;99.90;;;;;;5027146;28;20480;-73
2023/08/10 00:21:25;;;;;;;5.27;2.60;;;15.90;99.90;;;;;;5024444;28;20484;-74
2023/08/10 00:23:52;;;;;;;4.40;3.37;;;15.90;99.90;;;;;;5026586;28;20473;-74
2023/08/10 00:26:19;;;;;;;7.27;3.43;;;15.80;99.90;;;;;;5022426;28;21011;-73
2023/08/10 00:28:46;;;;;;;2.80;2.50;;;15.90;99.90;;;;;;5027750;28;20487;-73
2023/08/10 00:31:14;;;;;;;5.20;2.90;;;15.60;99.90;;;;;;5027740;28;20482;-74
2023/08/10 00:33:41;;;;;;;3.83;2.40;;;15.40;99.90;;;;;;5031341;28;20551;-73
2023/08/10 00:36:08;;;;;;;5.13;2.40;;;15.20;99.90;;;;;;5026788;28;21056;-74
2023/08/10 00:38:36;;;;;;;3.40;2.73;;;15.20;99.90;;;;;;5027852;28;20860;-74
2023/08/10 00:41:03;;;;;;;7.00;3.40;;;15.00;99.90;;;;;;5014476;28;20532;-74
2023/08/10 00:43:30;;;;;;;3.43;2.60;;;15.00;99.90;;;;;;5024206;28;20950;-74
2023/08/10 00:45:58;;;;;;;4.37;2.60;;;15.00;99.90;;;;;;5028546;28;20498;-75
2023/08/10 00:48:27;;;;;;;4.17;3.17;;;15.10;99.90;;;;;;5023623;28;20492;-75
2023/08/10 00:50:55;;;;;;;3.90;3.17;;;15.10;99.90;;;;;;5022885;28;20949;-75
2023/08/10 00:53:22;;;;;;;2.83;2.53;;;15.20;99.90;;;;;;5020499;28;20846;-75
2023/08/10 00:55:51;;;;;;;4.13;2.70;;;15.20;99.90;;;;;;5023581;28;20579;-75
2023/08/10 00:58:19;;;;;;;4.97;2.97;;;15.30;99.90;;;;;;5024607;28;20488;-74
2023/08/10 01:00:46;;;;;;;3.60;2.37;;;15.30;99.90;;;;;;5024532;28;20472;-75
2023/08/10 01:05:52;;;;;;;3.47;2.30;;;15.20;99.90;;;;;;5023504;28;20494;-70
2023/08/10 01:08:26;;;;;;;3.07;2.40;;;15.20;99.90;;;;;;5014039;28;20984;-69
2023/08/10 01:11:01;;;;;;;7.40;2.90;;;15.10;99.90;;;;;;5022359;28;20516;-69
2023/08/10 01:13:39;;;;;;;5.90;2.53;;;15.20;99.90;;;;;;5026564;28;20484;-70
2023/08/10 01:16:10;;;;;;;3.17;2.50;;;15.10;99.90;;;;;;5024840;28;21206;-70
2023/08/10 01:18:39;;;;;;;3.20;2.37;;;15.10;99.90;;;;;;4997518;28;20507;-70
2023/08/10 01:21:27;;;;;;;3.83;2.43;;;15.10;99.90;;;;;;4996133;28;21090;-70
2023/08/10 01:23:58;;;;;;;4.90;2.53;;;15.10;99.90;;;;;;5025409;28;21020;-70
2023/08/10 01:26:27;;;;;;;3.10;2.70;;;15.10;99.90;;;;;;5025434;28;20881;-70
2023/08/10 01:28:56;;;;;;;16.20;3.10;;;15.00;99.90;;;;;;5016989;28;20480;-70
2023/08/10 01:31:22;;;;;;;4.93;2.10;;;15.00;99.90;;;;;;5025382;28;20491;-70
2023/08/10 01:33:50;;;;;;;4.57;2.20;;;14.80;99.90;;;;;;5025867;28;20479;-69
2023/08/10 01:36:17;;;;;;;3.80;2.20;;;14.60;99.90;;;;;;5021900;28;20984;-69
2023/08/10 01:38:45;;;;;;;2.47;1.93;;;14.70;99.90;;;;;;5024130;28;21031;-69
2023/08/10 01:41:12;;;;;;;3.83;2.20;;;14.70;99.90;;;;;;5023075;28;20475;-69
2023/08/10 01:43:41;;;;;;;4.67;3.03;;;14.70;99.90;;;;;;5026341;28;20551;-70
2023/08/10 01:46:10;;;;;;;2.47;1.93;;;14.70;99.90;;;;;;5025844;28;20487;-70
2023/08/10 01:48:39;;;;;;;4.67;3.20;;;14.80;99.90;;;;;;5024165;28;20477;-70
2023/08/10 01:51:08;;;;;;;3.57;2.37;;;14.70;99.90;;;;;;5024740;28;20520;-69
2023/08/10 01:53:37;;;;;;;3.60;3.10;;;14.70;99.90;;;;;;5014268;28;20883;-69
2023/08/10 01:56:05;;;;;;;3.03;2.20;;;14.70;99.90;;;;;;5015566;28;20499;-69
2023/08/10 01:58:32;;;;;;;2.93;2.50;;;14.70;99.90;;;;;;5023005;28;20862;-69
2023/08/10 02:01:01;;;;;;;4.00;2.07;;;14.70;99.90;;;;;;5015815;28;20896;-69
2023/08/10 02:03:28;;;;;;;2.33;2.03;;;14.70;99.90;;;;;;5027447;28;20479;-69
2023/08/10 02:05:55;;;;;;;2.60;2.07;;;14.70;99.90;;;;;;5028455;28;20559;-69
2023/08/10 02:08:22;;;;;;;2.70;2.27;;;14.70;99.90;;;;;;5025114;28;21624;-69
2023/08/10 02:10:48;;;;;;;4.43;2.60;;;14.70;99.90;;;;;;5026377;28;20857;-69
2023/08/10 02:13:15;;;;;;;3.17;2.17;;;14.70;99.90;;;;;;5027913;28;20482;-69
2023/08/10 02:15:42;;;;;;;3.63;2.33;;;14.70;99.90;;;;;;5028073;28;20652;-69
2023/08/10 02:18:12;;;;;;;2.40;2.20;;;14.60;99.90;;;;;;5025360;28;20483;-69
2023/08/10 02:20:39;;;;;;;2.77;2.50;;;14.70;99.90;;;;;;5026397;28;20509;-69
2023/08/10 02:23:07;;;;;;;5.20;2.57;;;14.60;99.90;;;;;;5028737;28;20471;-69
2023/08/10 02:25:34;;;;;;;3.80;2.80;;;14.40;99.90;;;;;;5026354;28;20877;-68
2023/08/10 02:28:01;;;;;;;9.73;2.37;;;14.50;99.90;;;;;;5027478;28;20476;-68
2023/08/10 02:30:28;;;;;;;3.03;2.40;;;14.50;99.90;;;;;;5026465;28;20602;-67
2023/08/10 02:32:54;;;;;;;3.00;2.13;;;14.40;99.90;;;;;;5037400;23;20565;-69
2023/08/10 02:35:23;;;;;;;2.97;2.33;;;14.50;99.90;;;;;;4947919;28;20522;-69
2023/08/10 02:37:50;;;;;;;4.13;2.50;;;14.40;99.90;;;;;;4929644;29;20488;-69
2023/08/10 02:40:17;;;;;;;3.60;2.90;;;14.40;99.90;;;;;;4961062;28;21107;-69
2023/08/10 02:42:44;;;;;;;2.97;1.93;;;14.30;99.90;;;;;;4943483;28;20669;-69
2023/08/10 02:45:12;;;;;;;3.97;2.87;;;14.40;99.90;;;;;;4928778;29;20522;-69
2023/08/10 02:47:39;;;;;;;2.63;2.30;;;14.40;99.90;;;;;;4938622;28;20493;-69
2023/08/10 02:50:09;;;;;;;4.43;2.17;;;14.30;99.90;;;;;;4946942;28;20495;-69
2023/08/10 02:52:37;;;;;;;3.13;2.00;;;14.30;99.90;;;;;;4945436;28;20475;-69
2023/08/10 02:55:05;;;;;;;3.03;1.97;;;14.30;99.90;;;;;;4931508;28;20594;-68
2023/08/10 02:57:32;;;;;;;2.73;2.17;;;14.30;99.90;;;;;;4930009;28;20486;-68
2023/08/10 02:59:58;;;;;;;3.40;2.30;;;14.20;99.90;;;;;;4929760;28;20516;-69
2023/08/10 03:02:28;;;;;;;8.33;2.20;;;14.30;99.90;;;;;;4933843;28;20479;-69
2023/08/10 03:04:55;;;;;;;2.83;2.23;;;14.30;99.90;;;;;;4933809;28;20490;-69
2023/08/10 03:07:22;;;;;;;3.60;2.60;;;14.30;99.90;;;;;;4932264;28;21141;-68
2023/08/10 03:09:51;;;;;;;7.03;3.93;;;14.20;99.90;;;;;;4933437;28;20861;-69
2023/08/10 03:12:16;;;;;;;6.20;2.60;;;14.20;99.90;;;;;;4932159;28;20471;-69
2023/08/10 03:14:43;;;;;;;5.47;2.43;;;14.20;99.90;;;;;;4987673;28;20542;-68
2023/08/10 03:17:11;;;;;;;3.20;1.90;;;14.20;99.90;;;;;;4971671;28;21791;-68
2023/08/10 03:19:37;;;;;;;4.43;2.17;;;14.10;99.90;;;;;;4948416;28;20490;-68
2023/08/10 03:22:05;;;;;;;2.80;2.20;;;14.10;99.90;;;;;;4952009;28;20574;-68
2023/08/10 03:24:32;;;;;;;5.20;2.57;;;14.00;99.90;;;;;;4950380;28;20880;-68
2023/08/10 03:27:00;;;;;;;2.67;2.30;;;14.00;99.90;;;;;;4954939;28;21047;-69
2023/08/10 03:29:27;;;;;;;4.47;2.50;;;14.00;99.90;;;;;;4952152;28;20897;-68
2023/08/10 03:31:54;;;;;;;2.47;2.10;;;14.00;99.90;;;;;;4954524;28;20528;-69
2023/08/10 03:34:21;;;;;;;4.40;1.97;;;14.00;99.90;;;;;;4943339;28;20577;-68
2023/08/10 03:36:48;;;;;;;3.60;2.00;;;13.90;99.90;;;;;;4950790;28;20481;-68
2023/08/10 03:39:15;;;;;;;2.53;2.30;;;13.90;99.90;;;;;;4951824;28;20514;-69
2023/08/10 03:41:42;;;;;;;4.40;2.50;;;13.90;99.90;;;;;;4942121;28;20494;-68
2023/08/10 03:44:10;;;;;;;4.40;2.40;;;13.80;99.90;;;;;;4952897;28;20890;-68
2023/08/10 03:46:37;;;;;;;10.50;3.40;;;13.70;99.90;;;;;;4952569;28;20491;-67
2023/08/10 03:49:05;;;;;;;6.93;3.10;;;13.60;99.90;;;;;;4952842;28;20478;-67
2023/08/10 03:51:31;;;;;;;5.23;2.90;;;13.50;99.90;;;;;;4950927;28;20850;-66
2023/08/10 03:53:58;;;;;;;3.50;2.80;;;13.40;99.90;;;;;;4952869;28;20486;-67
2023/08/10 03:56:25;;;;;;;5.87;2.60;;;13.30;99.90;;;;;;4940991;28;20543;-67
2023/08/10 03:58:53;;;;;;;9.00;2.87;;;13.30;99.90;;;;;;4951480;28;20883;-67
2023/08/10 04:01:22;;;;;;;16.67;3.77;;;13.20;99.90;;;;;;4951323;28;20553;-67
2023/08/10 04:03:49;;;;;;;10.37;3.60;;;13.10;99.90;;;;;;4945309;28;20493;-67
2023/08/10 04:06:16;;;;;;;17.97;3.60;;;13.10;99.90;;;;;;4952869;28;21170;-66
2023/08/10 04:08:43;;;;;;;14.93;3.37;;;13.10;99.90;;;;;;4953382;28;20882;-66
2023/08/10 04:11:11;;;;;;;10.40;3.80;;;13.20;99.90;;;;;;4952317;28;20540;-66
2023/08/10 04:13:38;;;;;;;6.67;3.77;;;13.30;99.90;;;;;;4954139;28;20605;-67
2023/08/10 04:16:05;;;;;;;14.23;3.77;;;13.30;99.90;;;;;;4954408;28;20857;-66
2023/08/10 04:18:33;;;;;;;13.83;2.87;;;13.40;99.90;;;;;;4953367;28;20491;-66
2023/08/10 04:21:01;;;;;;;9.40;2.93;;;13.30;99.90;;;;;;4953256;28;20513;-66
2023/08/10 04:23:28;;;;;;;22.13;3.57;;;13.30;99.90;;;;;;4954306;28;20496;-66
2023/08/10 04:25:54;;;;;;;15.73;5.97;;;13.20;99.90;;;;;;4953391;28;20477;-66
2023/08/10 04:28:21;;;;;;;29.47;3.57;;;13.30;99.90;;;;;;4969107;28;20935;-66
2023/08/10 04:30:48;;;;;;;15.27;3.60;;;13.20;99.90;;;;;;5008515;28;20539;-66
2023/08/10 04:33:15;;;;;;;7.80;3.73;;;13.20;99.90;;;;;;4931553;28;20483;-66
2023/08/10 04:35:44;;;;;;;4.40;2.90;;;13.20;99.90;;;;;;4950952;28;20738;-66
2023/08/10 04:38:11;;;;;;;25.47;3.63;;;13.30;99.90;;;;;;4935737;28;20490;-66
2023/08/10 04:40:37;;;;;;;7.10;3.40;;;13.30;99.90;;;;;;4954205;28;20477;-66
2023/08/10 04:43:04;;;;;;;10.33;3.43;;;13.40;99.90;;;;;;4975997;28;20493;-66
2023/08/10 04:45:31;;;;;;;3.10;2.40;;;13.50;99.90;;;;;;4938577;28;20507;-65
2023/08/10 04:47:58;;;;;;;11.93;4.03;;;13.60;99.90;;;;;;4936646;28;20478;-66
2023/08/10 04:50:26;;;;;;;7.40;3.17;;;13.70;99.90;;;;;;4936359;28;20477;-65
2023/08/10 04:52:55;;;;;;;4.00;3.10;;;13.80;99.90;;;;;;4935584;28;20481;-65
2023/08/10 04:55:22;;;;;;;6.87;3.60;;;13.80;99.90;;;;;;4933725;28;20859;-67
2023/08/10 04:57:49;;;;;;;9.53;3.77;;;13.90;99.90;;;;;;4934752;28;20481;-67
2023/08/10 05:00:17;;;;;;;14.17;3.70;;;13.90;99.90;;;;;;4933846;28;20573;-67
2023/08/10 05:02:44;;;;;;;9.10;2.90;;;13.90;99.90;;;;;;4934797;28;20499;-67
2023/08/10 05:05:12;;;;;;;4.10;3.07;;;14.00;99.90;;;;;;4936464;28;20594;-67
2023/08/10 05:07:39;;;;;;;8.13;3.57;;;14.00;99.90;;;;;;4934062;28;20490;-67
2023/08/10 05:10:09;;;;;;;11.30;3.40;;;13.90;99.90;;;;;;4971121;28;21120;-67
2023/08/10 05:12:38;;;;;;;4.70;2.90;;;13.90;99.90;;;;;;4994620;28;20579;-67
2023/08/10 05:15:06;;;;;;;3.97;2.97;;;13.90;99.90;;;;;;5001854;28;20899;-67
2023/08/10 05:17:33;;;;;;;3.20;2.53;;;14.00;99.90;;;;;;4987150;28;20848;-67
2023/08/10 05:20:02;;;;;;;13.73;3.90;;;14.00;99.90;;;;;;4995259;28;20625;-67
2023/08/10 05:22:29;;;;;;;7.50;3.47;;;14.10;99.90;;;;;;4912082;28;20497;-67
2023/08/10 05:24:56;;;;;;;8.83;4.20;;;14.20;99.90;;;;;;4952856;28;20916;-67
2023/08/10 05:27:24;;;;;;;5.00;3.80;;;14.20;99.90;;;;;;4951425;28;20492;-67
2023/08/10 05:29:51;;;;;;;3.27;2.60;;;14.30;99.90;;;;;;4952483;28;20487;-67
2023/08/10 05:32:18;;;;;;;4.80;3.30;;;14.40;99.90;;;;;;4953406;28;20525;-67
2023/08/10 05:34:45;;;;;;;4.50;4.03;;;14.40;99.90;;;;;;4953285;28;20478;-67
2023/08/10 05:37:11;;;;;;;6.00;3.70;;;14.50;99.90;;;;;;4954472;28;20486;-67
2023/08/10 05:39:39;;;;;;;4.17;3.60;;;14.60;99.90;;;;;;4951996;28;20584;-67
2023/08/10 05:42:07;;;;;;;3.83;3.30;;;14.60;99.90;;;;;;4952639;28;20483;-67
2023/08/10 05:44:35;;;;;;;3.60;3.30;;;14.70;99.90;;;;;;4952418;28;20491;-67
2023/08/10 05:47:02;;;;;;;5.60;3.53;;;14.80;99.90;;;;;;4954802;28;20573;-67
2023/08/10 05:49:29;;;;;;;3.57;3.23;;;14.80;99.90;;;;;;4950465;28;20612;-67
2023/08/10 05:51:56;;;;;;;5.17;3.70;;;14.90;99.90;;;;;;4952947;28;20471;-68
2023/08/10 05:54:23;;;;;;;5.17;3.87;;;15.00;99.90;;;;;;4952633;28;20486;-67
2023/08/10 05:56:50;;;;;;;4.83;3.87;;;15.10;99.90;;;;;;4952796;28;20489;-67
2023/08/10 05:59:16;;;;;;;4.30;3.47;;;15.20;99.90;;;;;;4951818;28;20501;-68
2023/08/10 06:01:45;;;;;;;5.43;4.00;;;15.20;99.90;;;;;;4949588;28;20476;-67
2023/08/10 06:04:12;;;;;;;5.87;4.23;;;15.30;99.90;;;;;;4953412;28;20884;-68
2023/08/10 06:06:39;;;;;;;7.90;5.00;;;15.40;99.90;;;;;;4953454;28;20485;-66
2023/08/10 06:09:08;;;;;;;6.97;4.30;;;15.50;99.90;;;;;;4952165;28;20486;-66
2023/08/10 06:11:35;;;;;;;5.77;4.73;;;15.60;99.90;;;;;;4950671;28;20828;-66
2023/08/10 06:14:02;;;;;;;5.90;4.57;;;15.80;99.90;;;;;;4952220;28;20498;-65
2023/08/10 06:16:29;;;;;;;6.33;4.80;;;15.90;99.90;;;;;;4944501;28;20527;-66
2023/08/10 06:18:57;;;;;;;5.03;4.53;;;15.90;99.90;;;;;;4951691;28;20479;-66
2023/08/10 06:21:24;;;;;;;8.30;5.40;;;16.00;99.90;;;;;;4950833;28;20522;-66
2023/08/10 06:23:51;;;;;;;9.80;6.33;;;16.10;99.90;;;;;;4953446;28;20505;-65
2023/08/10 06:26:18;;;;;;;9.97;6.70;;;16.20;99.90;;;;;;4951029;28;20597;-66
2023/08/10 06:28:45;;;;;;;6.87;6.17;;;16.40;99.90;;;;;;4951566;28;20468;-66
2023/08/10 06:31:11;;;;;;;6.40;5.83;;;16.50;99.90;;;;;;4951214;28;20490;-65
2023/08/10 06:33:38;;;;;;;7.93;5.97;;;16.60;99.90;;;;;;4950088;28;20590;-66
2023/08/10 06:36:07;;;;;;;8.63;5.87;;;16.70;99.90;;;;;;4952544;28;20899;-66
2023/08/10 06:38:34;;;;;;;10.93;6.57;;;16.80;99.90;;;;;;4945891;28;20770;-65
2023/08/10 06:41:01;;;;;;;6.67;5.97;;;16.90;99.90;;;;;;4955091;28;20474;-65
2023/08/10 06:43:28;;;;;;;5.40;4.73;;;17.00;99.90;;;;;;4956333;28;20478;-66
2023/08/10 06:45:56;;;;;;;7.70;5.40;;;17.10;99.90;;;;;;4955910;28;20483;-65
2023/08/10 06:48:23;;;;;;;7.60;5.83;;;17.30;99.90;;;;;;4954270;28;20602;-65
2023/08/10 06:50:49;;;;;;;6.93;5.67;;;17.40;99.90;;;;;;4955748;28;20479;-65
2023/08/10 06:53:18;;;;;;;6.60;5.10;;;17.50;99.90;;;;;;4957826;28;20559;-65
2023/08/10 06:55:45;;;;;;;6.10;5.50;;;17.60;99.90;;;;;;4955447;28;20945;-66
2023/08/10 06:58:12;;;;;;;8.43;5.80;;;17.80;99.90;;;;;;4953355;28;20585;-66
2023/08/10 07:00:39;;;;;;;5.27;4.23;;;18.10;99.90;;;;;;4955778;28;20479;-65
2023/08/10 07:03:06;;;;;;;10.80;4.30;;;18.30;99.90;;;;;;4956732;28;20493;-65
2023/08/10 07:05:37;;;;;;;6.47;4.30;;;18.60;99.90;;;;;;4985812;28;20491;-66
2023/08/10 07:08:06;;;;;;;3.83;3.43;;;18.90;99.90;;;;;;4943610;28;20483;-66
2023/08/10 07:10:35;;;;;;;4.20;3.87;;;19.20;99.90;;;;;;4953433;28;20487;-66
2023/08/10 07:13:02;;;;;;;6.03;4.40;;;19.40;99.90;;;;;;4955063;28;20494;-66
2023/08/10 07:15:29;;;;;;;8.80;4.07;;;19.70;99.90;;;;;;4954093;28;20475;-68
2023/08/10 07:17:57;;;;;;;8.40;4.07;;;20.00;99.90;;;;;;4958476;28;20569;-68
2023/08/10 07:20:24;;;;;;;6.20;4.07;;;20.30;99.90;;;;;;4955311;28;20738;-68
2023/08/10 07:22:52;;;;;;;4.53;3.87;;;20.50;99.90;;;;;;4959216;28;20936;-68
2023/08/10 07:25:20;;;;;;;5.17;4.67;;;20.70;99.90;;;;;;4953798;28;20552;-68
2023/08/10 07:27:49;;;;;;;4.30;3.80;;;20.90;99.90;;;;;;4955097;28;20475;-68
2023/08/10 07:30:16;;;;;;;4.20;3.80;;;21.00;99.90;;;;;;4954282;28;20827;-68
2023/08/10 07:32:44;;;;;;;4.27;3.87;;;21.20;99.90;;;;;;4955638;28;20479;-68
2023/08/10 07:35:12;;;;;;;8.10;3.90;;;21.40;99.90;;;;;;4954602;28;20479;-68
2023/08/10 07:37:40;;;;;;;4.83;3.90;;;21.60;99.90;;;;;;4954335;28;20921;-68
2023/08/10 07:40:09;;;;;;;6.13;4.50;;;21.70;99.90;;;;;;4953577;28;20750;-68
2023/08/10 07:42:36;;;;;;;5.10;4.60;;;21.90;99.90;;;;;;4949129;28;20674;-68
2023/08/10 07:45:06;;;;;;;5.37;4.87;;;22.10;99.90;;;;;;4947678;28;20805;-68
2023/08/10 07:47:32;;;;;;;3.40;3.10;;;22.20;99.90;;;;;;4964519;28;20816;-68
2023/08/10 07:49:59;;;;;;;3.23;2.90;;;22.40;99.90;;;;;;4953183;28;20481;-68
2023/08/10 07:52:26;;;;;;;3.50;3.13;;;22.60;99.90;;;;;;4954150;28;20485;-68
2023/08/10 07:54:53;;;;;;;3.83;3.27;;;22.80;99.90;;;;;;4954830;28;20510;-68
2023/08/10 07:57:20;;;;;;;5.03;3.60;;;22.90;99.90;;;;;;4954663;28;20490;-69
2023/08/10 07:59:47;;;;;;;3.67;3.37;;;23.10;99.90;;;;;;4954791;28;20773;-69
2023/08/10 08:02:15;;;;;;;3.60;3.00;;;23.20;99.80;;;;;;4956981;28;20589;-69
2023/08/10 08:04:42;;;;;;;7.07;3.70;;;23.40;99.90;;;;;;4953960;28;20832;-69
2023/08/10 08:07:09;;;;;;;5.03;3.20;;;23.50;99.90;;;;;;4953181;28;20482;-69
2023/08/10 08:09:36;;;;;;;5.60;3.23;;;23.70;99.60;;;;;;4953552;28;20548;-69
2023/08/10 08:12:03;;;;;;;4.30;3.60;;;24.00;99.60;;;;;;4953999;28;20492;-69
2023/08/10 08:14:30;;;;;;;5.13;2.80;;;24.20;99.60;;;;;;4953147;28;20569;-69
2023/08/10 08:16:56;;;;;;;3.37;3.07;;;24.40;99.80;;;;;;4955310;28;20583;-69
2023/08/10 08:19:25;;;;;;;5.90;3.17;;;24.40;98.00;;;;;;4952605;28;20462;-69
2023/08/10 08:21:51;;;;;;;4.17;3.37;;;24.60;99.40;;;;;;4951818;28;20459;-69
2023/08/10 08:24:18;;;;;;;5.20;3.93;;;24.70;99.00;;;;;;4953729;28;20788;-70
2023/08/10 08:26:45;;;;;;;3.40;3.10;;;24.90;99.00;;;;;;4953965;28;20598;-70
2023/08/10 08:29:12;;;;;;;4.23;2.87;;;25.00;97.70;;;;;;4952453;28;20461;-69
2023/08/10 08:31:39;;;;;;;3.20;2.93;;;24.80;98.00;;;;;;4953398;28;20544;-70
2023/08/10 08:34:06;;;;;;;4.60;4.20;;;24.90;98.40;;;;;;4954093;28;20484;-69
2023/08/10 08:36:34;;;;;;;3.70;3.40;;;24.70;97.80;;;;;;4954432;28;20453;-70
2023/08/10 08:39:01;;;;;;;3.70;3.27;;;24.90;98.80;;;;;;4953970;28;20536;-70
2023/08/10 08:41:34;;;;;;;4.37;3.33;;;25.10;98.40;;;;;;4953813;28;20525;-70
2023/08/10 08:44:03;;;;;;;3.17;2.87;;;24.80;97.00;;;;;;4954820;28;20455;-70
2023/08/10 08:46:33;;;;;;;4.20;3.80;;;24.50;96.50;;;;;;4953087;28;20545;-70
2023/08/10 08:49:01;;;;;;;3.60;2.57;;;24.60;98.60;;;;;;4951963;28;20590;-70
2023/08/10 08:51:28;;;;;;;7.00;4.13;;;24.40;96.70;;;;;;4954747;28;20458;-70
2023/08/10 08:53:57;;;;;;;7.60;3.70;;;24.30;96.40;;;;;;4954466;28;20550;-70
2023/08/10 08:56:24;;;;;;;3.50;3.20;;;24.30;96.60;;;;;;4951832;28;20479;-70
2023/08/10 08:58:52;;;;;;;6.77;3.20;;;24.20;95.90;;;;;;4952154;28;20491;-70
2023/08/10 09:01:20;;;;;;;4.90;2.63;;;24.50;97.80;;;;;;4952516;28;20489;-70
2023/08/10 09:03:49;;;;;;;2.60;2.40;;;24.80;97.30;;;;;;4952176;28;20567;-70
2023/08/10 09:06:15;;;;;;;3.83;2.20;;;25.10;98.20;;;;;;4953092;28;20864;-70
2023/08/10 09:08:42;;;;;;;4.10;2.60;;;25.50;97.20;;;;;;4953896;28;20848;-70
2023/08/10 09:11:11;;;;;;;2.60;2.37;;;25.80;96.70;;;;;;4963724;28;21058;-70
2023/08/10 09:13:38;;;;;;;4.90;2.73;;;26.10;96.50;;;;;;4952354;28;21111;-70
2023/08/10 09:16:07;;;;;;;8.30;2.67;;;26.40;96.30;;;;;;4952718;28;20579;-70
2023/08/10 09:18:35;;;;;;;5.80;3.00;;;26.60;95.60;;;;;;4952694;28;21023;-70
2023/08/10 09:21:15;;;;;;;3.27;2.70;;;26.80;95.30;;;;;;4957887;28;20460;-70
2023/08/10 09:23:43;;;;;;;3.23;2.27;;;27.10;95.10;;;;;;4951170;28;20872;-70
2023/08/10 09:26:12;;;;;;;3.40;2.90;;;27.10;94.60;;;;;;4950446;28;20446;-70
2023/08/10 09:28:40;;;;;;;3.03;2.40;;;27.20;93.60;;;;;;4952687;28;20472;-70
2023/08/10 09:31:08;;;;;;;3.27;2.97;;;27.20;95.10;;;;;;4954584;28;20458;-70
2023/08/10 09:33:36;;;;;;;3.07;2.63;;;26.90;94.40;;;;;;4954293;28;20935;-69
2023/08/10 09:36:05;;;;;;;2.77;2.53;;;26.40;93.00;;;;;;4953265;28;20511;-69
2023/08/10 09:38:32;;;;;;;5.70;2.30;;;26.20;94.20;;;;;;4952398;28;20489;-69
2023/08/10 09:41:09;;;;;;;6.63;3.27;;;25.80;92.60;;;;;;4953475;28;20596;-68
2023/08/10 09:43:38;;;;;;;3.80;2.80;;;25.50;93.20;;;;;;4953513;28;20476;-69
2023/08/10 09:46:06;;;;;;;8.20;2.60;;;25.30;92.20;;;;;;4952989;28;20890;-70
2023/08/10 09:48:36;;;;;;;3.00;2.70;;;25.20;91.50;;;;;;4955351;28;20518;-70
2023/08/10 09:51:05;;;;;;;3.70;2.53;;;25.10;91.30;;;;;;4953677;28;21012;-70
2023/08/10 09:53:33;;;;;;;3.17;2.33;;;25.10;90.30;;;;;;4945868;28;20848;-69
2023/08/10 09:56:00;;;;;;;2.50;2.17;;;25.40;94.20;;;;;;4957461;28;20480;-69
2023/08/10 09:58:28;;;;;;;4.50;2.50;;;25.80;93.60;;;;;;4952212;28;20571;-70
2023/08/10 10:00:56;;;;;;;4.43;2.73;;;26.00;90.20;;;;;;4953229;28;20826;-70
2023/08/10 10:03:29;;;;;;;3.17;1.97;;;26.40;92.60;;;;;;4952093;28;20452;-70
2023/08/10 10:05:57;;;;;;;4.27;2.43;;;26.70;93.70;;;;;;4953728;28;20860;-70
2023/08/10 10:08:25;;;;;;;4.30;2.60;;;27.00;92.90;;;;;;4951138;28;20462;-70
2023/08/10 10:10:55;;;;;;;3.30;2.27;;;27.30;92.20;;;;;;4951536;28;20552;-70
2023/08/10 10:13:23;;;;;;;3.73;2.50;;;27.50;91.90;;;;;;4951115;28;20515;-70
2023/08/10 10:15:51;;;;;;;2.60;2.00;;;27.80;91.80;;;;;;4953904;28;20470;-70
2023/08/10 10:18:19;;;;;;;4.20;2.07;;;27.90;90.50;;;;;;4950399;28;20487;-70
2023/08/10 10:20:47;;;;;;;2.70;1.70;;;28.00;81.90;;;;;;4953249;28;21064;-70
2023/08/10 10:23:15;;;;;;;2.80;1.87;;;28.10;83.50;;;;;;4953018;28;20537;-70
2023/08/10 10:25:56;;;;;;;2.30;1.87;;;28.20;86.00;;;;;;4953051;28;20459;-70
2023/08/10 10:28:23;;;;;;;2.77;2.03;;;28.20;85.50;;;;;;4943045;28;20586;-70
2023/08/10 10:30:56;;;;;;;2.63;2.27;;;28.10;76.00;;;;;;4952740;28;20562;-70
2023/08/10 10:33:25;;;;;;;2.50;2.10;;;28.00;78.30;;;;;;4950682;28;20521;-70
2023/08/10 10:36:10;;;;;;;3.13;2.23;;;27.90;81.10;;;;;;4957516;28;21037;-70
2023/08/10 10:38:39;;;;;;;3.40;2.40;;;27.70;80.30;;;;;;4951392;28;20944;-69
2023/08/10 10:41:10;;;;;;;2.17;1.90;;;27.80;88.20;;;;;;4951711;28;20930;-69
2023/08/10 10:43:37;;;;;;;2.37;2.17;;;28.00;89.10;;;;;;4952754;28;20911;-70
2023/08/10 10:46:04;;;;;;;2.37;1.87;;;28.20;90.80;;;;;;4952124;28;20466;-69
2023/08/10 10:48:36;;;;;;;2.77;2.30;;;28.20;83.80;;;;;;4952979;28;20487;-70
2023/08/10 10:51:04;;;;;;;2.70;2.50;;;28.20;82.80;;;;;;4952789;28;20539;-70
2023/08/10 10:53:33;;;;;;;2.50;2.00;;;28.20;85.90;;;;;;4950052;28;20452;-70
2023/08/10 10:56:00;;;;;;;3.43;1.77;;;28.40;89.80;;;;;;4952382;28;20480;-70
2023/08/10 10:58:29;;;;;;;3.70;2.10;;;28.60;88.60;;;;;;4952376;28;20456;-70
2023/08/10 11:00:57;;;;;;;3.17;2.00;;;28.80;85.20;;;;;;4950751;28;20483;-70
2023/08/10 11:03:28;;;;;;;2.50;2.10;;;28.80;88.20;;;;;;4953378;28;20941;-70
2023/08/10 11:05:57;;;;;;;7.70;2.10;;;28.90;84.70;;;;;;4946406;28;20460;-70
2023/08/10 11:08:24;;;;;;;4.37;2.53;;;28.80;78.80;;;;;;4951362;28;20478;-69
2023/08/10 11:10:52;;;;;;;2.33;2.13;;;28.80;84.20;;;;;;4951772;28;20475;-69
2023/08/10 11:13:20;;;;;;;4.70;2.73;;;28.60;81.80;;;;;;4952487;28;20504;-70
2023/08/10 11:15:49;;;;;;;3.33;1.73;;;28.50;84.30;;;;;;4951870;28;20660;-70
2023/08/10 11:18:16;;;;;;;4.20;2.23;;;28.70;88.30;;;;;;4951283;28;20566;-70
2023/08/10 11:20:43;;;;;;;3.20;2.70;;;29.00;86.80;;;;;;4950866;28;20483;-70
2023/08/10 11:23:12;;;;;;;3.43;1.50;;;29.20;84.50;;;;;;4960480;28;20485;-70
2023/08/10 11:25:48;;;;;;;3.90;2.90;;;29.10;81.20;;;;;;4956027;28;20453;-70
2023/08/10 11:28:16;;;;;;;4.70;1.70;;;29.20;82.90;;;;;;4950832;28;20894;-70
2023/08/10 11:30:44;;;;;;;2.53;2.30;;;29.30;86.10;;;;;;4953211;28;20456;-69
2023/08/10 11:33:11;;;;;;;3.73;2.50;;;29.40;85.70;;;;;;4955320;28;20460;-70
2023/08/10 11:35:38;;;;;;;2.93;2.23;;;29.30;84.60;;;;;;4953546;28;20900;-70
2023/08/10 11:38:06;;;;;;;2.70;2.30;;;29.50;86.90;;;;;;4953520;28;20840;-69
2023/08/10 11:40:34;;;;;;;3.23;2.70;;;29.40;85.60;;;;;;4954595;28;20575;-70
2023/08/10 11:43:07;;;;;;;2.23;2.03;;;29.60;84.90;;;;;;4953637;28;20483;-69
2023/08/10 11:45:36;;;;;;;2.30;1.97;;;29.70;85.40;;;;;;4951247;28;20941;-69
2023/08/10 11:48:07;;;;;;;3.80;2.27;;;29.60;77.40;;;;;;4957170;28;20657;-69
2023/08/10 11:50:34;;;;;;;2.70;2.37;;;29.50;79.60;;;;;;4953293;28;20802;-69
2023/08/10 11:53:12;;;;;;;2.30;2.03;;;29.40;82.30;;;;;;4954225;28;20504;-70
2023/08/10 11:55:45;;;;;;;3.17;2.80;;;29.50;85.90;;;;;;4954289;28;20486;-70
2023/08/10 11:58:13;;;;;;;2.20;1.90;;;29.60;86.30;;;;;;4952223;28;20761;-69
2023/08/10 12:00:41;;;;;;;3.40;2.40;;;29.80;82.20;;;;;;4955215;28;20506;-70
2023/08/10 12:03:11;;;;;;;2.60;2.20;;;29.80;82.40;;;;;;4954870;28;20454;-70
2023/08/10 12:05:44;;;;;;;7.37;2.80;;;29.50;82.30;;;;;;4955852;28;20927;-69
2023/08/10 12:08:13;;;;;;;3.63;2.53;;;29.30;77.80;;;;;;4954990;28;20919;-70
2023/08/10 12:10:42;;;;;;;4.40;2.30;;;29.00;82.80;;;;;;4953045;28;20449;-70
2023/08/10 12:13:11;;;;;;;3.00;2.33;;;28.80;80.50;;;;;;4953871;28;20458;-69
2023/08/10 12:15:44;;;;;;;2.60;2.13;;;28.70;81.50;;;;;;4953598;28;20978;-69
2023/08/10 12:18:11;;;;;;;2.90;2.30;;;29.00;85.40;;;;;;4952808;28;20592;-69
2023/08/10 12:20:37;;;;;;;3.60;2.50;;;29.20;84.70;;;;;;4959394;28;20468;-70
2023/08/10 12:23:05;;;;;;;3.00;2.50;;;29.00;79.60;;;;;;4954530;28;20595;-70
2023/08/10 12:25:32;;;;;;;3.40;2.53;;;29.20;79.40;;;;;;4955172;28;20554;-69
2023/08/10 12:27:59;;;;;;;3.10;2.37;;;29.20;82.80;;;;;;4958162;28;20518;-70
2023/08/10 12:30:27;;;;;;;3.23;2.60;;;29.40;78.20;;;;;;4952857;28;20518;-69
2023/08/10 12:32:54;;;;;;;2.93;2.57;;;29.20;76.90;;;;;;4953144;28;20963;-69
2023/08/10 12:35:21;;;;;;;3.40;2.30;;;29.10;79.60;;;;;;4953425;28;20518;-69
2023/08/10 12:37:49;;;;;;;3.13;2.40;;;29.10;78.60;;;;;;4953227;28;20485;-69
2023/08/10 12:40:16;;;;;;;4.00;3.17;;;29.50;77.50;;;;;;4943505;28;20502;-69
2023/08/10 12:42:44;;;;;;;2.80;2.50;;;29.60;78.90;;;;;;4952117;28;21130;-69
2023/08/10 12:45:12;;;;;;;3.57;2.30;;;30.00;83.10;;;;;;4937532;28;20960;-70
2023/08/10 12:47:41;;;;;;;2.67;2.30;;;30.30;82.80;;;;;;4944216;28;20878;-69
2023/08/10 12:50:10;;;;;;;4.27;3.13;;;30.50;82.80;;;;;;4939594;28;21441;-69
2023/08/10 12:52:38;;;;;;;3.20;2.90;;;30.70;79.50;;;;;;4946432;28;20737;-70